Terminal Aerodrome Forecast
Issued by NWS

Home | Current Version | Previous Version | Graphics & Text | Print | Product List | Glossary On
Versions: 1 2 3 4 5 6 7 8 9 10 11 12 13 14 15
000
FTUS43 KMPX 280410 AAB
TAFAXN
TAF AMD
KAXN 280410Z 2804/2824 20008KT P6SM SCT030 OVC060
     FM281000 33011KT P6SM BKN035
     FM281400 34015G22KT P6SM SCT030 BKN050=

USA.gov is the U.S. government's official web portal to all federal, state and local government web resources and services.